Cedar, Michigan
Current Conditions -  °F | °C
As of 5:53 AM on Sunday 21 Dec 2014 (Local Time) from KTVC Reporting Station
Overcast Overcast  
Wind Chill: 29°   Ceiling: 3100
Heat Index: 29°   Visibility: 9mi
Dew Point: 24°   Wind: 3mph
Humidity: 82%   Direction: 180°S
Pressure: 30.21"   Gusts: NA
Location:  44.85°N, 85.8°W
Report Text: KTVC 211053Z AUTO 18003KT 9SM SCT019 OVC031 M02/M04 A3021 RMK AO2 SLP238 T10171044
Loading
Personal Weather Stations






























Interactive Weather Map New forecast layout! Learn more

10-Day Weather Forecast

Advertisements
Track Severe Weather on mobile